LFOP 301030Z AUTO 06010KT 040V110 CAVOK 24/07 Q1021 NOSIG

ElémentsDécodage
LFOP Station météo située sur l'aérodrome de ROUEN Vallée-de-Seine
301030Z émis le 30 du mois à 10h30 UTC
AUTO Bulletin édité par un automate
06010KT vent du 060°, 10 noeuds
040V110 vent de direction variable entre 040° et 110°
CAVOK Ceiling And Visibility OK
- Visibilité de 10 Km ou plus
- Pas de nuage au-dessous de 1500m ou au-dessous de l'altitude minimale du secteur la plus élevée (si>1500m) et absence de CB
- pas de temps présent significatif
24/07 température 24°C, point de rosée 07°C
 soit une humidité relative de 34%
Q1021 la pression au niveau de la mer (QNH) est de 1021 hPa
NOSIG Pas de changement significatif prévu au cours des deux heures suivant l'heure de l'observation